• Join FlightAware (Why Join?)
  • Login
  • US Flag 
06:47AM EDT


 

Airport Tracker/Info


-or-


 

Live Flight TrackerFlight Track Log ✈ DAL1051 ✈ 07-Oct-2013 ✈ KBIL - KMSP

Flight Track Log - Related Links

Times and Time Zones

All times are in EDT time to prevent confusion due to time zone crossing. See the DAL1051 flight status page for this flight to view local times or setup timezone preferences in your user account.

Time Position Orientation Groundspeed Altitude Reporting Facility
EDT Latitude Longitude Course Direction KTS MPH feet Rate Location/Type
03:32PM 45.8283 -108.5803 95° East 185 213 5,100  Level Salt Lake Center
03:33PM 45.8900 -108.5764 North 259 298 6,100 1,980 Climbing Salt Lake Center
03:35PM 45.8102 -107.9999 100° East  Level Estimated
03:35PM 45.9033 -108.4686 80° East 290 334 9,200  Level Salt Lake Center
03:36PM 45.8105 -107.8188 99° East  Level Estimated
03:36PM 45.8725 -108.3506 111° Southeast 293 337 11,700  Level Salt Lake Center
03:37PM 45.7609 -107.6525 113° Southeast  Level FlightAware Approximate
03:37PM 45.8428 -108.2278 109° East 325 374 13,700  Level Salt Lake Center
03:38PM 45.7612 -107.4716 95° East  Level Estimated
03:38PM 45.8078 -108.0769 108° East 368 423 14,700  Level Salt Lake Center
03:39PM 45.7725 -107.9217 108° East 411 473 16,900 2,160 Climbing Salt Lake Center
03:40PM 45.7481 -107.7417 101° East 426 490 19,200 1,980 Climbing Salt Lake Center
03:41PM 45.7300 -107.5694 98° East 441 507 21,000 1,560 Climbing Salt Lake Center
03:42PM 45.7094 -107.3911 99° East 452 520 22,500 1,020 Climbing Salt Lake Center
03:43PM 45.6931 -107.2031 97° East 472 543 23,200 780 Climbing Salt Lake Center
03:44PM 45.6775 -107.0044 96° East 493 567 24,200 1,200 Climbing Salt Lake Center
03:45PM 45.6578 -106.8003 98° East 508 585 25,700 1,440 Climbing Salt Lake Center
03:46PM 45.6381 -106.5964 98° East 514 592 27,200 1,740 Climbing Salt Lake Center
03:47PM 45.6186 -106.3622 97° East 505 581 29,400 1,740 Climbing Salt Lake Center
03:48PM 45.5994 -106.1692 98° East 497 572 30,900 1,560 Climbing Salt Lake Center
03:49PM 45.5814 -105.9792 98° East 489 563 32,700 1,200 Climbing Salt Lake Center
03:50PM 45.5639 -105.7961 98° East 475 547 33,500 1,020 Climbing Salt Lake Center
03:51PM 45.5447 -105.6122 98° East 470 541 34,900 720 Climbing Salt Lake Center
03:52PM 45.5258 -105.4286 98° East 469 540 35,000 420 Climbing Salt Lake Center
03:53PM 45.5069 -105.2411 98° East 475 547 35,800 780 Climbing Salt Lake Center
03:54PM 45.4836 -105.0186 98° East 475 547 36,700 540 Climbing Salt Lake Center
03:55PM 45.4628 -104.8344 99° East 473 544 37,000 120 Climbing Salt Lake Center
03:56PM 45.4431 -104.6461 98° East 477 549 37,000 -60 Level Salt Lake Center
03:57PM 45.4214 -104.4575 99° East 490 564 36,900 -60 Descending Salt Lake Center
03:58PM 45.3975 -104.2611 100° East 501 577 36,900  Level Salt Lake Center
03:59PM 45.3758 -104.0647 99° East 504 580 36,900  Level Salt Lake Center
04:00PM 45.3481 -103.8247 99° East 506 582 36,900  Level Salt Lake Center
04:01PM 45.3253 -103.6356 100° East 503 579 37,000  Climbing Salt Lake Center
04:02PM 45.3022 -103.4458 100° East 493 567 36,900  Descending Salt Lake Center
04:03PM 45.2864 -103.3172 100° East 495 570 37,000 60 Climbing Minneapolis Center
04:04PM 45.2631 -103.1242 100° East 496 571 37,000  Level Minneapolis Center
04:05PM 45.2392 -102.9317 100° East 497 572 37,000  Level Minneapolis Center
04:06PM 45.2139 -102.7375 100° East 499 574 37,000  Level Minneapolis Center
04:07PM 45.1894 -102.5436 100° East 500 575 37,000  Level Minneapolis Center
04:08PM 45.1639 -102.3533 101° East 496 571 37,000  Level Minneapolis Center
04:09PM 45.1333 -102.1225 101° East 497 572 37,000  Level Minneapolis Center
04:10PM 45.1072 -101.9325 101° East 494 568 37,000  Level Minneapolis Center
04:11PM 45.0808 -101.7417 101° East 494 568 37,000  Level Minneapolis Center
04:12PM 45.0664 -101.5492 96° East 493 567 37,000  Level Minneapolis Center
04:13PM 45.0544 -101.3556 95° East 495 570 37,000  Level Minneapolis Center
04:14PM 45.0411 -101.1636 96° East 492 566 37,000  Level Minneapolis Center
04:15PM 45.0306 -100.9703 94° East 494 568 37,000  Level Minneapolis Center
04:16PM 45.0342 -100.7353 89° East 499 574 37,000  Level Minneapolis Center
04:17PM 45.0369 -100.5444 89° East 490 564 37,000  Level Minneapolis Center
04:18PM 45.0442 -100.3519 87° East 491 565 37,000  Level Minneapolis Center
04:19PM 45.0442 -100.1600 90° East 490 564 37,000  Level Minneapolis Center
04:21PM 45.0439 -99.9578 90° East 492 566 37,000  Level Minneapolis Center
04:22PM 45.0469 -99.7486 89° East 498 573 37,000  Level Minneapolis Center
04:23PM 45.0475 -99.5547 90° East 496 571 37,000  Level Minneapolis Center
04:24PM 45.0478 -99.3611 90° East 494 568 37,000  Level Minneapolis Center
04:25PM 45.0475 -99.1664 90° East 495 570 37,000  Level Minneapolis Center
04:26PM 45.0472 -98.9344 90° East 493 567 37,000  Level Minneapolis Center
04:27PM 45.0467 -98.7392 90° East 495 570 37,000  Level Minneapolis Center
04:28PM 45.0450 -98.5467 91° East 492 566 37,000  Level Minneapolis Center
04:29PM 45.0436 -98.3531 91° East 493 567 37,000  Level Minneapolis Center
04:30PM 45.0417 -98.1353 91° East 492 566 37,000  Level Minneapolis Center
04:31PM 45.0397 -97.9417 91° East 493 567 37,000  Level Minneapolis Center
04:32PM 45.0364 -97.7478 91° East 493 567 37,000  Level Minneapolis Center
04:33PM 45.0342 -97.5539 91° East 493 567 37,000  Level Minneapolis Center
04:34PM 45.0303 -97.3597 92° East 493 567 37,000  Level Minneapolis Center
04:35PM 45.0247 -97.1656 92° East 493 567 37,000  Level Minneapolis Center
04:36PM 45.0214 -96.9711 91° East 494 568 37,000  Level Minneapolis Center
04:37PM 45.0164 -96.7381 92° East 495 570 37,000 -60 Level Minneapolis Center
04:38PM 45.0128 -96.5433 91° East 494 568 36,900 -540 Descending Minneapolis Center
04:39PM 45.0083 -96.3483 92° East 495 570 35,900 -1,020 Descending Minneapolis Center
04:40PM 45.0017 -96.1511 93° East 499 574 34,900 -960 Descending Minneapolis Center
04:41PM 44.9964 -95.9553 92° East 498 573 34,000 -960 Descending Minneapolis Center
04:42PM 44.9906 -95.7586 92° East 500 575 33,000 -1,080 Descending Minneapolis Center
04:43PM 44.9831 -95.5231 92° East 500 575 31,800 -1,260 Descending Minneapolis Center
04:44PM 44.9769 -95.3244 92° East 503 579 30,500 -2,280 Descending Minneapolis Center
04:45PM 44.9689 -95.1256 93° East 506 582 27,200 -3,180 Descending Minneapolis Center
04:46PM 44.9617 -94.9294 93° East 503 579 24,000 -3,480 Descending Minneapolis Center
04:47PM 44.9553 -94.7392 93° East 492 566 20,100 -3,540 Descending Minneapolis Center
04:48PM 44.9456 -94.5331 94° East 477 549 16,700 -3,240 Descending Minneapolis Center
04:49PM 44.9381 -94.3594 93° East 447 514 13,500 -2,760 Descending Minneapolis Center
04:51PM 44.9297 -94.1914 94° East 432 497 11,000 -1,260 Descending Minneapolis Center
04:52PM 44.9222 -94.0244 94° East 427 491 11,000  Level Minneapolis Center
04:53PM 44.9147 -93.8575 94° East 427 491 11,000  Level Minneapolis Center
04:54PM 44.9042 -93.6606 94° East 419 482 11,000 -300 Level Minneapolis Center
04:55PM 44.8808 -93.5239 104° East 366 421 10,400 -1,200 Descending Minneapolis Center
04:56PM 44.8356 -93.4153 120° Southeast 324 373 8,600 -1,500 Descending Minneapolis Center
04:57PM 44.8028 -93.3122 114° Southeast 288 331 7,300 -1,560 Descending Minneapolis Center
04:58PM 44.7722 -93.2158 114° Southeast 263 303 5,400 -1,500 Descending Minneapolis Center
04:59PM 44.7564 -93.1339 105° East 212 244 4,300 -1,140 Descending Minneapolis Center
05:00PM 44.7992 -93.0914 35° Northeast 191 220 3,100 -1,020 Descending Minneapolis Center
05:01PM 44.8417 -93.1044 348° North 159 183 2,300 -840 Descending Minneapolis Center
05:02PM 44.8656 -93.1578 302° West 135 155 1,400 -900 Descending Minneapolis Center